createdAt,value
2024-03-25T00:03:44.898Z,96857.00
2024-03-25T00:07:45.840Z,96853.00
2024-03-25T00:11:46.930Z,96852.00
2024-03-25T00:15:48.100Z,96864.00
2024-03-25T00:19:52.656Z,96854.00
2024-03-25T00:23:55.709Z,96866.00
2024-03-25T00:27:58.312Z,96860.00
2024-03-25T00:31:59.497Z,96864.00
2024-03-25T00:36:00.763Z,96858.00
2024-03-25T00:40:02.319Z,96859.00
2024-03-25T00:44:03.378Z,96866.00
2024-03-25T00:48:04.922Z,96866.00
2024-03-25T00:52:05.919Z,96864.00
2024-03-25T00:56:06.886Z,96850.00
2024-03-25T01:00:08.947Z,96851.00
2024-03-25T01:04:10.036Z,96839.00
2024-03-25T01:08:12.397Z,96866.00
2024-03-25T01:12:13.392Z,96859.00
2024-03-25T01:16:14.370Z,96864.00
2024-03-25T01:20:16.429Z,96869.00
2024-03-25T01:24:17.508Z,96863.00
2024-03-25T01:28:19.613Z,96873.00
2024-03-25T01:32:20.761Z,96872.00
2024-03-25T01:36:22.048Z,96869.00
2024-03-25T01:40:23.132Z,96872.00
2024-03-25T01:44:25.007Z,96872.00
2024-03-25T01:48:25.959Z,96882.00
2024-03-25T01:52:28.727Z,96874.00
2024-03-25T01:56:33.282Z,96873.00
2024-03-25T02:00:35.191Z,96870.00
2024-03-25T02:04:36.674Z,96876.00
2024-03-25T02:08:38.958Z,96873.00
2024-03-25T02:12:42.441Z,96882.00
2024-03-25T02:16:43.471Z,96879.00
2024-03-25T02:20:45.565Z,96876.00
2024-03-25T02:24:48.140Z,96876.00
2024-03-25T02:28:49.252Z,96877.00
2024-03-25T02:32:50.808Z,96774.00
2024-03-25T02:36:52.503Z,96880.00
2024-03-25T02:40:53.747Z,96882.00
2024-03-25T02:44:57.235Z,96876.00
2024-03-25T02:48:58.346Z,96871.00
2024-03-25T02:52:59.399Z,96875.00
2024-03-25T02:57:00.476Z,96882.00
2024-03-25T03:01:01.410Z,96888.00
2024-03-25T03:05:04.579Z,96879.00
2024-03-25T03:09:05.938Z,96916.00
2024-03-25T03:13:07.070Z,96893.00
2024-03-25T03:17:08.047Z,96896.00
2024-03-25T03:21:09.168Z,96894.00
2024-03-25T03:25:10.101Z,96902.00
2024-03-25T03:29:11.292Z,96895.00
2024-03-25T03:33:12.393Z,96750.00
2024-03-25T03:37:13.484Z,96892.00
2024-03-25T03:41:14.455Z,96890.00
2024-03-25T03:45:15.582Z,96896.00
2024-03-25T03:49:16.510Z,96895.00
2024-03-25T03:53:17.987Z,96894.00
2024-03-25T03:57:19.115Z,96895.00
2024-03-25T04:01:20.184Z,96889.00
2024-03-25T04:05:21.363Z,96883.00
2024-03-25T04:09:24.119Z,96882.00
2024-03-25T04:13:25.100Z,96874.00
2024-03-25T04:17:26.221Z,96887.00
2024-03-25T04:21:27.301Z,96882.00
2024-03-25T04:25:28.415Z,96895.00
2024-03-25T04:29:29.763Z,96899.00
2024-03-25T04:33:30.744Z,96890.00
2024-03-25T04:37:31.875Z,96893.00
2024-03-25T04:41:32.853Z,96897.00
2024-03-25T04:45:33.814Z,96896.00
2024-03-25T04:49:34.935Z,96893.00
2024-03-25T04:53:36.036Z,96890.00
2024-03-25T04:57:37.135Z,96890.00
2024-03-25T05:01:38.255Z,96893.00
2024-03-25T05:05:39.267Z,96894.00
2024-03-25T05:09:40.187Z,96891.00
2024-03-25T05:13:41.266Z,96900.00
2024-03-25T05:17:42.670Z,96896.00
2024-03-25T05:21:43.866Z,96912.00
2024-03-25T05:25:45.234Z,96910.00
2024-03-25T05:29:46.410Z,96920.00
2024-03-25T05:33:47.580Z,96930.00
2024-03-25T05:37:48.667Z,96933.00
2024-03-25T05:41:50.575Z,96930.00
2024-03-25T05:45:53.979Z,96929.00
2024-03-25T05:49:54.938Z,96941.00
2024-03-25T05:53:56.091Z,96943.00
2024-03-25T05:57:57.018Z,96947.00
2024-03-25T06:01:58.181Z,96958.00
2024-03-25T06:05:59.307Z,96953.00
2024-03-25T06:10:00.337Z,96963.00
2024-03-25T06:14:01.540Z,96968.00
2024-03-25T06:18:02.636Z,96952.00
2024-03-25T06:22:03.970Z,96949.00
2024-03-25T06:26:05.053Z,96940.00
2024-03-25T06:30:25.948Z,96941.00
2024-03-25T06:34:26.901Z,96947.00
2024-03-25T06:38:28.023Z,96957.00
2024-03-25T06:42:29.224Z,96960.00
2024-03-25T06:46:30.252Z,96961.00
2024-03-25T06:50:31.369Z,96973.00
2024-03-25T06:54:32.461Z,96979.00
2024-03-25T06:58:33.563Z,96984.00
2024-03-25T07:02:35.063Z,96982.00
2024-03-25T07:06:36.211Z,96992.00
2024-03-25T07:10:37.362Z,96975.00
2024-03-25T07:14:38.352Z,96990.00
2024-03-25T07:18:39.377Z,96992.00
2024-03-25T07:22:40.352Z,96996.00
2024-03-25T07:26:41.649Z,96999.00
2024-03-25T07:30:42.867Z,97010.00
2024-03-25T07:34:43.994Z,97002.00
2024-03-25T07:38:44.984Z,96999.00
2024-03-25T07:42:46.019Z,97000.00
2024-03-25T07:46:47.130Z,97000.00
2024-03-25T07:50:48.269Z,97006.00
2024-03-25T07:54:49.369Z,97003.00
2024-03-25T07:58:50.400Z,96989.00
2024-03-25T08:02:51.558Z,97013.00
2024-03-25T08:06:52.551Z,97011.00
2024-03-25T08:10:53.701Z,97009.00
2024-03-25T08:14:54.766Z,97010.00
2024-03-25T08:18:55.881Z,97016.00
2024-03-25T08:22:56.882Z,97018.00
2024-03-25T08:26:58.313Z,97012.00
2024-03-25T08:30:59.334Z,97007.00
2024-03-25T08:35:00.532Z,97013.00
2024-03-25T08:39:01.676Z,97010.00
2024-03-25T08:43:03.007Z,97016.00
2024-03-25T08:47:04.511Z,97018.00
2024-03-25T08:51:05.658Z,97009.00
2024-03-25T08:55:07.650Z,97011.00
2024-03-25T08:59:10.263Z,97008.00
2024-03-25T09:03:11.275Z,97008.00
2024-03-25T09:07:15.126Z,97017.00
2024-03-25T09:11:16.155Z,97013.00
2024-03-25T09:15:17.221Z,97004.00
2024-03-25T09:19:18.337Z,97002.00
2024-03-25T09:23:19.534Z,97000.00
2024-03-25T09:27:20.702Z,97002.00
2024-03-25T09:31:22.933Z,96998.00
2024-03-25T09:35:24.075Z,96997.00
2024-03-25T09:39:25.372Z,96982.00
2024-03-25T09:43:30.225Z,96979.00
2024-03-25T09:47:31.462Z,96879.00
2024-03-25T09:51:32.638Z,96985.00
2024-03-25T09:55:33.899Z,96976.00
2024-03-25T09:59:35.590Z,96972.00
2024-03-25T10:03:36.786Z,96974.00
2024-03-25T10:07:38.150Z,96979.00
2024-03-25T10:11:39.271Z,96966.00
2024-03-25T10:15:40.251Z,96958.00
2024-03-25T10:19:41.262Z,96954.00
2024-03-25T10:23:45.591Z,96955.00
2024-03-25T10:27:58.035Z,96946.00
2024-03-25T10:32:05.362Z,96940.00
2024-03-25T10:36:09.403Z,96928.00
2024-03-25T10:40:13.016Z,96915.00
2024-03-25T10:44:14.117Z,96922.00
2024-03-25T10:48:23.198Z,96927.00
2024-03-25T10:52:26.994Z,96918.00
2024-03-25T10:56:28.160Z,96916.00
2024-03-25T11:00:29.714Z,96908.00
2024-03-25T11:04:32.040Z,96905.00
2024-03-25T11:08:33.015Z,96904.00
2024-03-25T11:12:38.437Z,96888.00
2024-03-25T11:16:40.099Z,96889.00
2024-03-25T11:20:41.300Z,96884.00
2024-03-25T11:24:44.383Z,96884.00
2024-03-25T11:28:45.907Z,96874.00
2024-03-25T11:32:55.729Z,96879.00
2024-03-25T11:36:58.141Z,96871.00
2024-03-25T11:40:59.445Z,96869.00
2024-03-25T11:45:01.628Z,96871.00
2024-03-25T11:49:05.023Z,96874.00
2024-03-25T11:53:06.274Z,96863.00
2024-03-25T11:57:08.746Z,96849.00
2024-03-25T12:01:10.784Z,96843.00
2024-03-25T12:05:12.310Z,96831.00
2024-03-25T12:09:32.159Z,96829.00
2024-03-25T12:13:33.285Z,96820.00
2024-03-25T12:17:34.677Z,96816.00
2024-03-25T12:21:37.188Z,96828.00
2024-03-25T12:25:39.423Z,96812.00
2024-03-25T12:29:41.052Z,96797.00
2024-03-25T12:33:42.352Z,96783.00
2024-03-25T12:37:45.180Z,96783.00
2024-03-25T12:41:46.434Z,96776.00
2024-03-25T12:45:47.711Z,96765.00
2024-03-25T12:49:48.753Z,96761.00
2024-03-25T12:53:49.967Z,96753.00
2024-03-25T12:57:52.915Z,96759.00
2024-03-25T13:01:54.206Z,96746.00
2024-03-25T13:05:57.124Z,96753.00
2024-03-25T13:09:58.637Z,96741.00
2024-03-25T13:14:01.086Z,96746.00
2024-03-25T13:18:02.536Z,96726.00
2024-03-25T13:22:05.467Z,96729.00
2024-03-25T13:26:06.921Z,96721.00
2024-03-25T13:30:09.409Z,96717.00
2024-03-25T13:34:10.532Z,96712.00
2024-03-25T13:38:11.932Z,96711.00
2024-03-25T13:42:13.017Z,96705.00
2024-03-25T13:46:16.413Z,96701.00
2024-03-25T13:50:17.641Z,96702.00
2024-03-25T13:54:18.687Z,96691.00
2024-03-25T13:58:19.839Z,96689.00
2024-03-25T14:02:21.019Z,96680.00
2024-03-25T14:06:22.130Z,96677.00
2024-03-25T14:10:23.212Z,96671.00
2024-03-25T14:14:24.526Z,96670.00
2024-03-25T14:18:25.762Z,96669.00
2024-03-25T14:22:26.780Z,96668.00
2024-03-25T14:26:27.894Z,96659.00
2024-03-25T14:30:31.496Z,96663.00
2024-03-25T14:34:32.642Z,96648.00
2024-03-25T14:38:35.034Z,96647.00
2024-03-25T14:42:37.403Z,96641.00
2024-03-25T14:46:38.555Z,96636.00
2024-03-25T14:50:39.663Z,96629.00
2024-03-25T14:54:40.930Z,96623.00
2024-03-25T14:58:41.971Z,96603.00
2024-03-25T15:02:43.096Z,96605.00
2024-03-25T15:06:44.191Z,96596.00
2024-03-25T15:10:48.303Z,96598.00
2024-03-25T15:14:49.284Z,96588.00
2024-03-25T15:18:51.620Z,96587.00
2024-03-25T15:22:52.746Z,96593.00
2024-03-25T15:26:53.762Z,96578.00
2024-03-25T15:30:59.065Z,96569.00
2024-03-25T15:35:00.948Z,96564.00
2024-03-25T15:39:02.764Z,96557.00
2024-03-25T15:43:04.064Z,96538.00
2024-03-25T15:47:05.591Z,96544.00
2024-03-25T15:51:07.735Z,96534.00
2024-03-25T15:55:09.624Z,96548.00
2024-03-25T15:59:10.616Z,96542.00
2024-03-25T16:03:11.749Z,96534.00
2024-03-25T16:07:13.303Z,96536.00
2024-03-25T16:11:18.485Z,96527.00
2024-03-25T16:15:19.481Z,96532.00
2024-03-25T16:19:20.484Z,96524.00
2024-03-25T16:23:21.595Z,96514.00
2024-03-25T16:27:22.723Z,96515.00
2024-03-25T16:31:23.884Z,96512.00
2024-03-25T16:35:25.406Z,96507.00
2024-03-25T16:39:26.614Z,96498.00
2024-03-25T16:43:27.785Z,96502.00
2024-03-25T16:47:29.090Z,96492.00
2024-03-25T16:51:30.510Z,96494.00
2024-03-25T16:55:31.622Z,96483.00
2024-03-25T16:59:32.637Z,96483.00
2024-03-25T17:03:35.868Z,96477.00
2024-03-25T17:07:38.818Z,96484.00
2024-03-25T17:11:40.133Z,96483.00
2024-03-25T17:15:41.738Z,96478.00
2024-03-25T17:19:42.830Z,96486.00
2024-03-25T17:23:43.880Z,96486.00
2024-03-25T17:27:45.806Z,96488.00
2024-03-25T17:31:49.314Z,96474.00
2024-03-25T17:35:50.328Z,96471.00
2024-03-25T17:39:51.340Z,96463.00
2024-03-25T17:43:52.471Z,96470.00
2024-03-25T17:47:53.469Z,96462.00
2024-03-25T17:51:55.115Z,96458.00
2024-03-25T17:55:57.946Z,96459.00
2024-03-25T17:59:59.382Z,96456.00
2024-03-25T18:04:00.418Z,96439.00
2024-03-25T18:08:01.388Z,96442.00
2024-03-25T18:12:05.376Z,96432.00
2024-03-25T18:16:06.769Z,96442.00
2024-03-25T18:20:09.738Z,96432.00
2024-03-25T18:24:12.374Z,96429.00
2024-03-25T18:28:13.511Z,96424.00
2024-03-25T18:32:14.476Z,96426.00
2024-03-25T18:36:15.558Z,96420.00
2024-03-25T18:40:17.084Z,96418.00
2024-03-25T18:44:18.326Z,96409.00
2024-03-25T18:48:20.968Z,96418.00
2024-03-25T18:52:22.021Z,96404.00
2024-03-25T18:56:24.973Z,96395.00
2024-03-25T19:00:26.133Z,96391.00
2024-03-25T19:04:27.109Z,96390.00
2024-03-25T19:08:28.246Z,96382.00
2024-03-25T19:12:29.264Z,96386.00
2024-03-25T19:16:30.494Z,96385.00
2024-03-25T19:20:31.607Z,96367.00
2024-03-25T19:24:33.349Z,96370.00
2024-03-25T19:28:34.347Z,96369.00
2024-03-25T19:32:36.222Z,96219.00
2024-03-25T19:36:37.325Z,96362.00
2024-03-25T19:40:38.267Z,96360.00
2024-03-25T19:44:39.279Z,96363.00
2024-03-25T19:48:40.277Z,96354.00
2024-03-25T19:52:41.380Z,96350.00
2024-03-25T19:56:42.699Z,96349.00
2024-03-25T20:00:43.723Z,96346.00
2024-03-25T20:04:45.686Z,96353.00
2024-03-25T20:08:46.704Z,96339.00
2024-03-25T20:12:47.993Z,96342.00
2024-03-25T20:16:49.002Z,96342.00
2024-03-25T20:20:50.019Z,96341.00
2024-03-25T20:24:50.999Z,96331.00
2024-03-25T20:28:52.107Z,96342.00
2024-03-25T20:32:54.150Z,96341.00
2024-03-25T20:36:55.178Z,96329.00
2024-03-25T20:40:56.145Z,96331.00
2024-03-25T20:44:57.341Z,96326.00
2024-03-25T20:48:58.348Z,96309.00
2024-03-25T20:52:59.415Z,96316.00
2024-03-25T20:57:00.425Z,96306.00
2024-03-25T21:01:01.450Z,96298.00
2024-03-25T21:05:03.892Z,96292.00
2024-03-25T21:09:04.890Z,96291.00
2024-03-25T21:13:05.876Z,96285.00
2024-03-25T21:17:07.563Z,96274.00
2024-03-25T21:21:08.544Z,96286.00
2024-03-25T21:25:09.827Z,96257.00
2024-03-25T21:29:11.371Z,96268.00
2024-03-25T21:33:12.349Z,96267.00
2024-03-25T21:37:13.354Z,96265.00
2024-03-25T21:41:16.398Z,96263.00
2024-03-25T21:45:17.387Z,96251.00
2024-03-25T21:49:18.499Z,96248.00
2024-03-25T21:53:19.680Z,96257.00
2024-03-25T21:57:20.802Z,96242.00
2024-03-25T22:01:22.249Z,96242.00
2024-03-25T22:05:24.144Z,96234.00
2024-03-25T22:09:25.475Z,96244.00
2024-03-25T22:13:26.631Z,96237.00
2024-03-25T22:17:28.868Z,96234.00
2024-03-25T22:21:30.000Z,96244.00
2024-03-25T22:25:31.282Z,96236.00
2024-03-25T22:29:32.323Z,96228.00
2024-03-25T22:33:33.340Z,96231.00
2024-03-25T22:37:40.158Z,96218.00
2024-03-25T22:41:37.324Z,96217.00
2024-03-25T22:45:38.293Z,96216.00
2024-03-25T22:49:39.263Z,96219.00
2024-03-25T22:53:40.383Z,96230.00
2024-03-25T22:57:41.424Z,96236.00
2024-03-25T23:01:42.439Z,96222.00
2024-03-25T23:05:43.436Z,96219.00
2024-03-25T23:09:44.618Z,96212.00
2024-03-25T23:13:45.577Z,96212.00
2024-03-25T23:17:46.714Z,96196.00
2024-03-25T23:21:47.689Z,96200.00
2024-03-25T23:25:48.696Z,96202.00
2024-03-25T23:29:49.718Z,96199.00
2024-03-25T23:33:50.809Z,96195.00
2024-03-25T23:37:52.034Z,96195.00
2024-03-25T23:41:53.346Z,96186.00
2024-03-25T23:45:57.124Z,96189.00
2024-03-25T23:49:58.120Z,96179.00
2024-03-25T23:53:59.251Z,96078.00
2024-03-25T23:58:00.226Z,96183.00
